Time;durP1;ratioP1;P1;durP2;ratioP2;P2;SDS_P1;SDS_P2;PMS_P1;PMS_P2;Temp;Humidity;BMP_temperature;BMP_pressure;BME280_temperature;BME280_humidity;BME280_pressure;Samples;Min_cycle;Max_cycle;Signal;HPM_P1;HPM_P2
2021/12/17 00:01:11;;;;;;;19.80;11.18;;;1.90;99.90;;;;;;5154642;27;20417;-74
2021/12/17 00:03:50;;;;;;;18.13;9.48;;;1.90;99.90;;;;;;5138066;27;20517;-74
2021/12/17 00:08:58;;;;;;;19.75;10.65;;;1.90;99.90;;;;;;5155232;27;20038;-74
2021/12/17 00:11:25;;;;;;;17.67;10.25;;;1.90;99.90;;;;;;5156377;27;20066;-74
2021/12/17 00:13:58;;;;;;;18.48;11.38;;;1.90;99.90;;;;;;5159082;27;20039;-72
2021/12/17 00:16:30;;;;;;;20.15;12.60;;;1.90;99.90;;;;;;5156824;27;20046;-75
2021/12/17 00:49:38;;;;;;;21.48;11.45;;;1.90;99.90;;;;;;5113355;28;20139;-74
2021/12/17 00:52:05;;;;;;;18.92;10.65;;;1.90;99.90;;;;;;5113173;28;20118;-74
2021/12/17 00:54:42;;;;;;;17.90;9.95;;;1.90;99.90;;;;;;5096670;28;20496;-74
2021/12/17 00:57:12;;;;;;;21.92;11.48;;;1.90;99.90;;;;;;5113279;28;20599;-74
2021/12/17 00:59:50;;;;;;;19.77;10.02;;;2.00;99.90;;;;;;5096938;28;20036;-74
2021/12/17 01:02:21;;;;;;;21.60;11.38;;;2.00;99.90;;;;;;5094918;28;20035;-74
2021/12/17 01:04:56;;;;;;;19.90;11.63;;;2.00;99.90;;;;;;5096849;28;20040;-74
2021/12/17 01:07:27;;;;;;;18.52;10.52;;;2.00;99.90;;;;;;5096122;28;20075;-74
2021/12/17 01:10:04;;;;;;;20.20;10.50;;;2.00;99.90;;;;;;5096968;28;20572;-73
2021/12/17 01:12:46;;;;;;;18.65;10.52;;;2.00;99.90;;;;;;5097748;28;20594;-74
2021/12/17 01:15:30;;;;;;;16.13;9.43;;;2.00;99.90;;;;;;5098613;28;20419;-74
2021/12/17 01:18:35;;;;;;;20.67;11.40;;;2.00;99.90;;;;;;5112093;28;20092;-74
2021/12/17 01:35:53;;;;;;;18.73;10.32;;;2.00;99.90;;;;;;5112461;28;20092;-73
2021/12/17 01:44:09;;;;;;;19.38;10.05;;;1.90;99.90;;;;;;5111876;28;20040;-74
2021/12/17 01:46:39;;;;;;;21.27;10.55;;;1.90;99.90;;;;;;5112199;28;20035;-74
2021/12/17 01:49:29;;;;;;;19.30;9.80;;;1.90;99.90;;;;;;5095245;28;20503;-74
2021/12/17 02:00:32;;;;;;;26.90;13.15;;;2.00;99.90;;;;;;5111432;28;20051;-74
2021/12/17 02:03:06;;;;;;;22.52;10.88;;;2.00;99.90;;;;;;5094143;28;20902;-74
2021/12/17 02:05:39;;;;;;;33.78;18.40;;;2.00;99.90;;;;;;5095212;28;20089;-74
2021/12/17 02:08:06;;;;;;;30.30;15.57;;;2.00;99.90;;;;;;5111222;28;20061;-74
2021/12/17 02:30:25;;;;;;;20.58;10.10;;;2.00;99.90;;;;;;5111424;28;20499;-76
2021/12/17 02:32:52;;;;;;;22.05;11.13;;;2.00;99.90;;;;;;5093820;28;20051;-76
2021/12/17 02:35:40;;;;;;;22.27;11.82;;;2.00;99.90;;;;;;5112060;28;20044;-74
2021/12/17 02:38:09;;;;;;;23.95;11.00;;;2.00;99.90;;;;;;5110882;28;20086;-76
2021/12/17 02:46:52;;;;;;;24.55;11.32;;;2.00;99.90;;;;;;5111417;28;20039;-76
2021/12/17 02:49:28;;;;;;;19.67;9.80;;;2.10;99.90;;;;;;5111131;28;20039;-74
2021/12/17 02:52:04;;;;;;;21.45;10.93;;;2.10;99.90;;;;;;5111076;28;20071;-75
2021/12/17 02:54:33;;;;;;;18.58;9.85;;;2.10;99.90;;;;;;5110598;28;20046;-74
2021/12/17 02:57:00;;;;;;;22.67;10.90;;;2.10;99.90;;;;;;5110918;28;20087;-73
2021/12/17 02:59:34;;;;;;;22.13;12.15;;;2.10;99.90;;;;;;5110973;28;20139;-74
2021/12/17 03:02:03;;;;;;;23.83;11.82;;;2.10;99.90;;;;;;5093961;28;20054;-74
2021/12/17 03:04:33;;;;;;;21.98;11.18;;;2.10;99.90;;;;;;5110300;28;20154;-73
2021/12/17 03:07:05;;;;;;;38.22;16.15;;;2.10;99.90;;;;;;5094691;28;20035;-73
2021/12/17 03:09:51;;;;;;;34.20;13.07;;;2.10;99.90;;;;;;5110906;28;20138;-74
2021/12/17 03:12:34;;;;;;;29.00;12.65;;;2.10;99.90;;;;;;5113936;28;20487;-72
2021/12/17 03:26:25;;;;;;;20.33;10.55;;;2.10;99.90;;;;;;5114393;28;20580;-74
2021/12/17 03:29:02;;;;;;;19.23;9.80;;;2.10;99.90;;;;;;5098812;28;20104;-74
2021/12/17 03:31:29;;;;;;;19.88;9.77;;;2.10;99.90;;;;;;5114902;28;20082;-76
2021/12/17 03:34:17;;;;;;;21.83;10.77;;;2.10;99.90;;;;;;5114374;28;20047;-73
2021/12/17 03:36:54;;;;;;;26.30;10.75;;;2.10;99.90;;;;;;5098685;28;20078;-73
2021/12/17 03:39:23;;;;;;;26.45;12.15;;;2.10;99.90;;;;;;5114618;28;20048;-74
2021/12/17 03:41:52;;;;;;;24.38;12.13;;;2.10;99.90;;;;;;5098053;28;20100;-76
2021/12/17 03:44:32;;;;;;;20.83;11.00;;;2.20;99.90;;;;;;5114194;28;20099;-74
2021/12/17 03:47:04;;;;;;;24.08;11.73;;;2.20;99.90;;;;;;5114904;28;20402;-74
2021/12/17 03:49:46;;;;;;;24.15;11.15;;;2.20;99.90;;;;;;5099804;28;20040;-76
2021/12/17 03:52:18;;;;;;;28.77;12.47;;;2.20;99.90;;;;;;5098197;28;20411;-74
2021/12/17 03:54:46;;;;;;;23.50;11.05;;;2.20;99.90;;;;;;5114397;28;20051;-74
2021/12/17 03:57:19;;;;;;;25.08;12.27;;;2.20;99.90;;;;;;5098194;28;20071;-73
2021/12/17 03:59:52;;;;;;;26.45;11.18;;;2.20;99.90;;;;;;5097500;28;20043;-75
2021/12/17 04:02:23;;;;;;;24.65;11.18;;;2.20;99.90;;;;;;5096932;28;20112;-73
2021/12/17 04:04:56;;;;;;;27.27;11.85;;;2.10;99.90;;;;;;5098032;28;20040;-75
2021/12/17 04:07:32;;;;;;;25.63;10.85;;;2.10;99.90;;;;;;5115763;27;20059;-73
2021/12/17 04:10:13;;;;;;;26.70;11.13;;;2.10;99.90;;;;;;5115451;28;20055;-73
2021/12/17 04:12:56;;;;;;;27.75;11.60;;;2.10;99.90;;;;;;5097978;28;20450;-73
2021/12/17 04:15:38;;;;;;;29.92;12.38;;;2.10;99.90;;;;;;5097969;28;20121;-75
2021/12/17 04:18:07;;;;;;;33.55;12.00;;;2.20;99.90;;;;;;5097047;28;20163;-73
2021/12/17 04:20:39;;;;;;;29.52;11.23;;;2.20;99.90;;;;;;5097729;28;20508;-75
2021/12/17 04:23:11;;;;;;;24.23;9.95;;;2.20;99.90;;;;;;5097438;28;20500;-75
2021/12/17 04:25:43;;;;;;;25.55;11.25;;;2.20;99.90;;;;;;5097591;28;20046;-73
2021/12/17 04:28:17;;;;;;;29.55;12.18;;;2.20;99.90;;;;;;5113698;28;20508;-73
2021/12/17 04:30:45;;;;;;;33.67;12.52;;;2.20;99.90;;;;;;5113909;28;20043;-73
2021/12/17 04:33:13;;;;;;;26.30;11.82;;;2.20;99.90;;;;;;5117999;27;20047;-73
2021/12/17 04:35:41;;;;;;;27.98;12.05;;;2.10;99.90;;;;;;5125514;27;20051;-75
2021/12/17 04:38:11;;;;;;;29.27;14.05;;;2.10;99.90;;;;;;5113463;27;20388;-73
2021/12/17 04:40:42;;;;;;;35.78;13.60;;;2.10;99.90;;;;;;5133346;27;20100;-75
2021/12/17 04:46:13;;;;;;;36.58;13.13;;;2.10;99.90;;;;;;5133384;27;20042;-73
2021/12/17 04:57:20;;;;;;;34.47;12.73;;;2.20;99.90;;;;;;5125995;27;20108;-73
2021/12/17 04:59:50;;;;;;;30.55;11.73;;;2.30;99.90;;;;;;5136112;27;20244;-72
2021/12/17 05:02:22;;;;;;;27.92;13.45;;;2.40;99.90;;;;;;5152153;27;20134;-73
2021/12/17 05:05:07;;;;;;;28.35;11.75;;;2.30;99.90;;;;;;5138540;27;20051;-73
2021/12/17 05:07:50;;;;;;;29.40;12.35;;;2.30;99.90;;;;;;5138104;27;20078;-73
2021/12/17 05:19:01;;;;;;;32.83;13.02;;;2.30;99.90;;;;;;5112072;28;20138;-73
2021/12/17 05:21:34;;;;;;;38.53;13.90;;;2.20;99.90;;;;;;5113116;27;20050;-73
2021/12/17 05:24:02;;;;;;;36.78;13.63;;;2.20;99.90;;;;;;5098662;28;20047;-75
2021/12/17 05:26:31;;;;;;;29.35;14.15;;;2.30;99.90;;;;;;5101132;28;20503;-73
2021/12/17 05:28:59;;;;;;;35.05;15.80;;;2.30;99.90;;;;;;5110812;28;20044;-73
2021/12/17 05:31:31;;;;;;;33.78;15.07;;;2.30;99.90;;;;;;5094185;28;20408;-73
2021/12/17 05:34:03;;;;;;;41.65;17.15;;;2.40;99.90;;;;;;5078048;28;20054;-73
2021/12/17 05:36:44;;;;;;;34.67;14.45;;;2.40;99.90;;;;;;5094013;27;20067;-73
2021/12/17 05:39:20;;;;;;;39.60;16.20;;;2.40;99.90;;;;;;5078812;28;20048;-73
2021/12/17 05:41:48;;;;;;;44.05;15.77;;;2.40;99.90;;;;;;5078364;28;20043;-73
2021/12/17 05:44:35;;;;;;;37.13;15.65;;;2.40;99.90;;;;;;5087676;27;20040;-76
2021/12/17 05:47:06;;;;;;;46.25;18.95;;;2.40;99.90;;;;;;5093032;28;20063;-76
2021/12/17 05:49:33;;;;;;;39.47;15.32;;;2.40;99.90;;;;;;5093862;28;20402;-75
2021/12/17 05:52:02;;;;;;;32.92;14.90;;;2.40;99.90;;;;;;5077189;28;20663;-73
2021/12/17 05:54:35;;;;;;;27.85;11.40;;;2.40;99.90;;;;;;5093624;28;20130;-73
2021/12/17 05:57:07;;;;;;;36.80;15.60;;;2.40;99.90;;;;;;5110276;28;20040;-75
2021/12/17 05:59:36;;;;;;;38.42;14.48;;;2.30;99.90;;;;;;5094083;28;20052;-74
2021/12/17 06:02:11;;;;;;;46.60;15.85;;;2.30;99.90;;;;;;5077129;28;20415;-73
2021/12/17 06:04:46;;;;;;;48.00;14.75;;;2.30;99.90;;;;;;5110526;28;20096;-74
2021/12/17 06:07:29;;;;;;;36.22;14.88;;;2.30;99.90;;;;;;5094048;28;20503;-76
2021/12/17 06:10:04;;;;;;;37.47;13.75;;;2.30;99.90;;;;;;5115336;27;20127;-73
2021/12/17 06:12:43;;;;;;;46.67;16.23;;;2.30;99.90;;;;;;5098162;27;20376;-73
2021/12/17 06:15:17;;;;;;;40.13;19.25;;;2.40;99.90;;;;;;5097427;27;20069;-73
2021/12/17 06:17:50;;;;;;;75.10;31.55;;;2.40;99.90;;;;;;5113863;27;20096;-73
2021/12/17 06:20:19;;;;;;;67.35;29.92;;;2.40;99.90;;;;;;5113057;27;20047;-73
2021/12/17 06:22:55;;;;;;;39.28;17.88;;;2.40;99.90;;;;;;5112124;27;20043;-73
2021/12/17 06:25:22;;;;;;;38.50;17.58;;;2.40;99.90;;;;;;5096619;27;20071;-73
2021/12/17 06:27:55;;;;;;;43.05;17.05;;;2.40;99.90;;;;;;5114113;27;20168;-73
2021/12/17 06:30:22;;;;;;;39.22;16.33;;;2.40;99.90;;;;;;5114147;27;20039;-73
2021/12/17 06:32:55;;;;;;;36.33;15.07;;;2.50;99.90;;;;;;5113974;27;20138;-73
2021/12/17 06:35:24;;;;;;;37.30;14.13;;;2.50;99.90;;;;;;5098006;27;20196;-73
2021/12/17 06:37:51;;;;;;;39.10;13.50;;;2.50;99.90;;;;;;5114423;27;20055;-76
2021/12/17 06:40:27;;;;;;;38.80;15.85;;;2.50;99.90;;;;;;5098426;27;20498;-75
2021/12/17 06:42:55;;;;;;;37.75;14.60;;;2.40;99.90;;;;;;5096681;27;20514;-75
2021/12/17 06:45:48;;;;;;;34.88;13.25;;;2.50;99.90;;;;;;5113647;27;20039;-73
2021/12/17 06:48:17;;;;;;;46.50;15.40;;;2.50;99.90;;;;;;5113984;27;20517;-73
2021/12/17 06:57:49;;;;;;;32.60;13.75;;;2.50;99.90;;;;;;5132355;27;20063;-76
2021/12/17 07:06:36;;;;;;;28.35;12.75;;;2.50;99.90;;;;;;5131431;27;20054;-74
2021/12/17 07:10:04;;;;;;;26.75;11.52;;;2.50;99.90;;;;;;5112431;27;20046;-74
2021/12/17 07:21:16;;;;;;;26.83;10.95;;;2.60;99.90;;;;;;5089844;27;20048;-76
2021/12/17 07:24:15;;;;;;;26.45;13.43;;;2.70;99.90;;;;;;5134025;27;20039;-73
2021/12/17 07:35:25;;;;;;;44.95;19.10;;;2.80;99.90;;;;;;5113408;28;20051;-76
2021/12/17 07:40:40;;;;;;;46.35;18.95;;;2.80;99.90;;;;;;5113624;28;20096;-73
2021/12/17 07:43:11;;;;;;;50.88;18.45;;;2.90;99.90;;;;;;5095704;28;20499;-74
2021/12/17 07:45:52;;;;;;;53.60;18.10;;;2.90;99.90;;;;;;5092727;28;20036;-74
2021/12/17 07:48:28;;;;;;;48.95;19.42;;;2.90;99.90;;;;;;5114428;28;20119;-74
2021/12/17 07:51:03;;;;;;;52.97;20.42;;;2.90;99.90;;;;;;5107337;27;20047;-74
2021/12/17 07:53:49;;;;;;;49.08;20.00;;;2.90;99.90;;;;;;5114900;28;20097;-74
2021/12/17 07:56:22;;;;;;;46.80;18.52;;;2.90;99.90;;;;;;5092213;27;20461;-74
2021/12/17 07:59:02;;;;;;;44.33;17.88;;;2.90;99.90;;;;;;5112892;28;20055;-75
2021/12/17 08:01:32;;;;;;;49.50;22.77;;;2.90;99.90;;;;;;5106066;27;20042;-73
2021/12/17 08:04:10;;;;;;;41.13;21.63;;;3.00;99.90;;;;;;5111505;28;20063;-74
2021/12/17 08:06:53;;;;;;;39.80;15.88;;;3.00;99.90;;;;;;5114032;28;20043;-74
2021/12/17 08:09:28;;;;;;;49.35;19.38;;;3.10;99.90;;;;;;5098023;28;20039;-74
2021/12/17 08:11:57;;;;;;;39.42;17.45;;;3.10;99.90;;;;;;5099741;27;20096;-74
2021/12/17 08:14:38;;;;;;;41.72;18.98;;;3.10;99.90;;;;;;5100599;27;20043;-74
2021/12/17 08:26:05;;;;;;;42.72;19.42;;;3.20;99.90;;;;;;5115553;27;20043;-75
2021/12/17 08:28:53;;;;;;;30.88;16.38;;;3.20;99.90;;;;;;5115100;27;20422;-74
2021/12/17 08:31:23;;;;;;;20.48;10.70;;;3.30;99.90;;;;;;5100020;27;20067;-74
2021/12/17 08:33:53;;;;;;;19.42;10.45;;;3.30;99.90;;;;;;5116462;27;20100;-74
2021/12/17 08:36:28;;;;;;;17.73;9.90;;;3.40;99.90;;;;;;5096130;28;20457;-74
2021/12/17 08:38:55;;;;;;;16.25;9.63;;;3.30;99.90;;;;;;5129571;27;20063;-74
2021/12/17 08:41:29;;;;;;;14.65;9.90;;;3.40;99.90;;;;;;5114334;27;20039;-74
2021/12/17 08:44:01;;;;;;;16.17;9.52;;;3.40;99.90;;;;;;5129678;27;20036;-74
2021/12/17 08:46:37;;;;;;;13.77;8.25;;;3.40;99.90;;;;;;5118165;27;20044;-74
2021/12/17 08:49:16;;;;;;;13.77;8.27;;;3.50;99.90;;;;;;5097710;28;20050;-74
2021/12/17 08:52:13;;;;;;;10.00;7.50;;;3.50;99.90;;;;;;5112322;28;20127;-74
2021/12/17 08:54:48;;;;;;;11.32;8.27;;;3.50;99.90;;;;;;5112635;28;20051;-74
2021/12/17 08:57:20;;;;;;;13.00;8.15;;;3.60;99.90;;;;;;5096652;28;20043;-75
2021/12/17 08:59:48;;;;;;;10.35;7.78;;;3.60;99.90;;;;;;5095574;28;20051;-74
2021/12/17 09:02:25;;;;;;;13.38;8.25;;;3.60;99.90;;;;;;5096512;28;20040;-74
2021/12/17 09:05:13;;;;;;;11.30;7.90;;;3.60;99.90;;;;;;5112591;28;20036;-74
2021/12/17 09:07:47;;;;;;;13.30;8.20;;;3.60;99.90;;;;;;5097664;28;20040;-75
2021/12/17 09:10:39;;;;;;;10.25;7.53;;;3.70;99.90;;;;;;5120013;27;20039;-74
2021/12/17 09:13:09;;;;;;;10.30;7.57;;;3.60;99.90;;;;;;5115667;27;20130;-74
2021/12/17 09:15:37;;;;;;;11.55;8.38;;;3.60;99.90;;;;;;5115198;27;20039;-74
2021/12/17 09:18:11;;;;;;;10.07;8.27;;;3.70;99.90;;;;;;5117162;27;20045;-74
2021/12/17 09:20:53;;;;;;;11.88;8.32;;;3.70;99.90;;;;;;5121651;27;20047;-74
2021/12/17 09:23:33;;;;;;;11.20;8.85;;;3.70;99.90;;;;;;5110924;27;20054;-74
2021/12/17 09:26:02;;;;;;;9.15;7.68;;;3.80;99.90;;;;;;5128263;27;20112;-74
2021/12/17 09:28:31;;;;;;;12.43;9.15;;;3.80;99.90;;;;;;5094601;28;20046;-74
2021/12/17 09:31:06;;;;;;;12.48;10.07;;;3.80;99.90;;;;;;5094331;28;20075;-73
2021/12/17 09:33:49;;;;;;;12.57;9.60;;;3.90;99.90;;;;;;5094883;28;20500;-74
2021/12/17 09:36:28;;;;;;;14.40;10.98;;;3.90;99.90;;;;;;5094235;28;20554;-74
2021/12/17 09:38:55;;;;;;;13.57;11.38;;;3.90;99.90;;;;;;5077473;28;20104;-74
2021/12/17 09:41:31;;;;;;;13.35;10.20;;;3.90;99.90;;;;;;5078503;28;20044;-74
2021/12/17 09:44:00;;;;;;;12.82;9.73;;;3.90;99.90;;;;;;5093562;28;20661;-74
2021/12/17 09:46:32;;;;;;;13.57;10.38;;;3.90;99.90;;;;;;5078163;28;20056;-74
2021/12/17 09:49:06;;;;;;;13.88;10.05;;;3.90;99.90;;;;;;5093719;28;20055;-74
2021/12/17 09:51:34;;;;;;;13.75;9.70;;;4.00;99.90;;;;;;5077334;28;20514;-74
2021/12/17 09:54:01;;;;;;;12.07;9.07;;;4.00;99.90;;;;;;5090558;27;20509;-73
2021/12/17 09:56:29;;;;;;;12.35;9.82;;;4.00;99.90;;;;;;5117735;27;20082;-73
2021/12/17 09:59:02;;;;;;;11.63;9.48;;;4.00;99.90;;;;;;5153115;27;20078;-74
2021/12/17 10:01:32;;;;;;;13.13;10.07;;;4.00;99.90;;;;;;5135499;27;20032;-74
2021/12/17 10:04:26;;;;;;;13.70;10.95;;;4.00;99.90;;;;;;5116463;27;20062;-73
2021/12/17 10:07:19;;;;;;;13.73;10.45;;;4.10;99.90;;;;;;5153075;27;20045;-74
2021/12/17 10:10:03;;;;;;;13.07;10.35;;;4.10;99.90;;;;;;5134715;27;20422;-76
2021/12/17 10:12:34;;;;;;;13.48;9.63;;;4.10;99.90;;;;;;5117097;27;20146;-73
2021/12/17 10:15:16;;;;;;;12.73;10.35;;;4.10;99.90;;;;;;5117623;27;20082;-74
2021/12/17 10:18:02;;;;;;;9.85;8.70;;;4.10;99.90;;;;;;5134911;27;20046;-75
2021/12/17 10:21:00;;;;;;;12.30;10.02;;;4.10;99.90;;;;;;5152331;27;20555;-75
2021/12/17 10:23:32;;;;;;;11.98;9.57;;;4.10;99.90;;;;;;5153012;27;20038;-76
2021/12/17 10:26:04;;;;;;;12.55;10.48;;;4.10;99.90;;;;;;5128501;27;20066;-75
2021/12/17 10:28:32;;;;;;;12.38;9.98;;;4.10;99.90;;;;;;5112982;27;20047;-75
2021/12/17 10:31:00;;;;;;;12.75;9.88;;;4.10;99.90;;;;;;5112749;27;20475;-75
2021/12/17 10:33:35;;;;;;;13.43;9.80;;;4.20;99.90;;;;;;5110805;27;20049;-75
2021/12/17 10:36:03;;;;;;;10.90;9.25;;;4.20;99.90;;;;;;5113706;27;20070;-75
2021/12/17 10:38:31;;;;;;;12.55;9.85;;;4.30;99.90;;;;;;5096621;27;20051;-75
2021/12/17 10:41:10;;;;;;;12.63;9.90;;;4.30;99.90;;;;;;5094278;27;20142;-75
2021/12/17 10:43:48;;;;;;;12.10;9.93;;;4.30;99.90;;;;;;5114337;27;20432;-75
2021/12/17 10:46:30;;;;;;;11.88;9.80;;;4.30;99.90;;;;;;5113912;27;20050;-75
2021/12/17 10:51:55;;;;;;;13.80;10.55;;;4.40;99.90;;;;;;5113300;27;20043;-75
2021/12/17 10:54:28;;;;;;;13.10;9.93;;;4.40;99.90;;;;;;5129240;27;20065;-76
2021/12/17 10:56:58;;;;;;;11.77;9.23;;;4.40;99.90;;;;;;5113012;27;20035;-75
2021/12/17 10:59:31;;;;;;;13.43;10.60;;;4.40;99.90;;;;;;5113149;27;20175;-75
2021/12/17 11:02:12;;;;;;;12.70;9.90;;;4.40;99.90;;;;;;5114162;27;20043;-75
2021/12/17 11:04:46;;;;;;;11.05;9.10;;;4.50;99.90;;;;;;5112527;27;20043;-74
2021/12/17 11:07:17;;;;;;;11.57;8.52;;;4.50;99.90;;;;;;5096688;27;20100;-74
2021/12/17 11:09:57;;;;;;;12.38;9.90;;;4.50;99.90;;;;;;5131941;27;20035;-74
2021/12/17 11:12:38;;;;;;;14.95;10.93;;;4.60;99.90;;;;;;5113440;27;20039;-75
2021/12/17 11:15:24;;;;;;;22.00;14.90;;;4.50;99.90;;;;;;5114557;28;20051;-74
2021/12/17 11:18:00;;;;;;;24.40;15.88;;;4.50;99.90;;;;;;5096685;27;20073;-75
2021/12/17 11:20:30;;;;;;;16.25;12.52;;;4.50;99.90;;;;;;5114273;28;20053;-75
2021/12/17 11:23:09;;;;;;;14.18;10.68;;;4.50;99.90;;;;;;5131447;27;20047;-75
2021/12/17 11:25:44;;;;;;;12.25;9.80;;;4.50;99.90;;;;;;5131084;28;20499;-75
2021/12/17 11:28:17;;;;;;;11.45;8.88;;;4.60;99.90;;;;;;5131054;28;20041;-75
2021/12/17 11:30:51;;;;;;;14.18;10.75;;;4.60;99.90;;;;;;5132233;27;20082;-75
2021/12/17 11:33:25;;;;;;;12.23;10.32;;;4.60;99.90;;;;;;5113968;28;20073;-75
2021/12/17 11:35:59;;;;;;;13.90;10.30;;;4.60;99.90;;;;;;5130695;28;20228;-75
2021/12/17 11:38:55;;;;;;;13.73;11.23;;;4.70;99.90;;;;;;5114960;28;20043;-75
2021/12/17 11:42:13;;;;;;;13.93;11.10;;;4.70;99.90;;;;;;5112757;28;20161;-75
2021/12/17 11:45:22;;;;;;;14.68;11.48;;;4.70;99.90;;;;;;5129497;27;20487;-75
2021/12/17 11:47:47;;;;;;;14.98;10.73;;;4.70;99.90;;;;;;5132799;27;20043;-75
2021/12/17 11:50:17;;;;;;;12.55;10.07;;;4.70;99.90;;;;;;5133574;27;20039;-75
2021/12/17 11:52:50;;;;;;;15.45;10.38;;;4.70;99.90;;;;;;5133590;27;20039;-75
2021/12/17 11:55:28;;;;;;;13.07;10.48;;;4.80;99.90;;;;;;5117157;27;20050;-75
2021/12/17 11:57:59;;;;;;;11.48;9.68;;;4.90;99.90;;;;;;5080005;28;20078;-75
2021/12/17 12:00:44;;;;;;;11.77;9.50;;;4.80;99.90;;;;;;5093671;28;20136;-75
2021/12/17 12:03:25;;;;;;;;;;;5.00;99.90;;;;;;5096398;28;20050;-75
2021/12/17 12:06:02;;;;;;;12.52;9.32;;;4.90;99.90;;;;;;5080424;28;19963;-75
2021/12/17 12:08:51;;;;;;;13.07;9.32;;;5.00;99.90;;;;;;5082047;28;20047;-75
2021/12/17 12:11:26;;;;;;;15.90;12.45;;;5.00;99.90;;;;;;5097048;28;20089;-75
2021/12/17 12:13:55;;;;;;;14.27;11.20;;;5.00;99.90;;;;;;5079292;28;20084;-75
2021/12/17 12:16:31;;;;;;;15.27;11.45;;;5.00;99.90;;;;;;5130048;27;20479;-75
2021/12/17 12:19:10;;;;;;;14.45;9.90;;;4.90;99.90;;;;;;5120848;27;20491;-75
2021/12/17 12:22:02;;;;;;;17.30;10.88;;;5.00;99.90;;;;;;5120441;27;20099;-75
2021/12/17 12:24:35;;;;;;;18.23;11.40;;;4.90;99.90;;;;;;5129655;27;20043;-75
2021/12/17 12:27:28;;;;;;;15.05;11.48;;;5.00;99.90;;;;;;5135068;27;20112;-75
2021/12/17 12:29:57;;;;;;;13.75;10.38;;;5.00;99.90;;;;;;5099854;27;20716;-75
2021/12/17 12:32:30;;;;;;;14.02;10.55;;;4.90;99.90;;;;;;5100026;27;20036;-75
2021/12/17 12:35:08;;;;;;;14.73;11.70;;;5.00;99.90;;;;;;5102702;27;20578;-75
2021/12/17 12:37:35;;;;;;;13.13;10.70;;;4.90;99.90;;;;;;5137333;27;20027;-75
2021/12/17 12:40:16;;;;;;;17.77;11.73;;;4.90;99.90;;;;;;5101193;27;20834;-75
2021/12/17 12:42:48;;;;;;;15.68;11.73;;;4.90;99.90;;;;;;5112279;28;20040;-75
2021/12/17 12:45:23;;;;;;;15.90;12.32;;;4.90;99.90;;;;;;5096671;28;20047;-75
2021/12/17 12:47:58;;;;;;;16.38;12.30;;;4.90;99.90;;;;;;5096139;28;20096;-75
2021/12/17 12:50:34;;;;;;;15.88;11.68;;;4.90;99.90;;;;;;5114978;27;20047;-76
2021/12/17 12:53:09;;;;;;;15.55;11.43;;;4.90;99.90;;;;;;5116292;27;20039;-75
2021/12/17 12:55:45;;;;;;;22.55;19.58;;;5.00;99.90;;;;;;5118658;27;20047;-75
2021/12/17 12:58:36;;;;;;;21.63;16.02;;;5.00;99.90;;;;;;5116989;27;20046;-75
2021/12/17 13:01:10;;;;;;;15.82;11.68;;;5.00;99.90;;;;;;5114057;27;20066;-75
2021/12/17 13:03:44;;;;;;;15.30;12.13;;;5.00;99.90;;;;;;5115228;27;20106;-76
2021/12/17 13:06:18;;;;;;;15.30;12.18;;;5.10;99.90;;;;;;5116285;27;20071;-75
2021/12/17 13:08:56;;;;;;;17.55;12.15;;;5.00;99.90;;;;;;5115783;27;20146;-75
2021/12/17 13:11:29;;;;;;;20.38;13.73;;;5.10;99.90;;;;;;5117003;27;20107;-75
2021/12/17 13:14:08;;;;;;;33.97;20.50;;;5.10;99.90;;;;;;5114847;27;20510;-75
2021/12/17 13:16:55;;;;;;;35.17;21.55;;;5.10;99.90;;;;;;5116398;27;20063;-75
2021/12/17 13:22:42;;;;;;;20.42;13.20;;;5.20;99.90;;;;;;5115154;27;20050;-75
2021/12/17 13:25:23;;;;;;;18.30;12.60;;;5.20;99.90;;;;;;5116247;27;20031;-75
2021/12/17 13:27:55;;;;;;;15.32;11.45;;;5.30;99.90;;;;;;5133716;27;20035;-75
2021/12/17 13:30:27;;;;;;;17.45;12.52;;;5.20;99.90;;;;;;5097569;27;20039;-75
2021/12/17 13:32:59;;;;;;;17.27;12.25;;;5.30;99.90;;;;;;5096809;27;20227;-75
2021/12/17 13:35:27;;;;;;;15.98;12.07;;;5.30;99.90;;;;;;5077352;28;20043;-75
2021/12/17 13:38:02;;;;;;;17.13;11.15;;;5.30;99.90;;;;;;5110715;28;20049;-75
2021/12/17 13:40:36;;;;;;;17.77;12.25;;;5.40;99.90;;;;;;5078038;28;20043;-75
2021/12/17 13:43:02;;;;;;;16.33;11.20;;;5.50;99.90;;;;;;5094126;28;20090;-75
2021/12/17 13:45:30;;;;;;;16.15;11.55;;;5.50;99.90;;;;;;5077197;28;20135;-75
2021/12/17 13:48:02;;;;;;;17.50;11.25;;;5.50;99.90;;;;;;5076625;28;20491;-75
2021/12/17 13:50:44;;;;;;;15.52;11.90;;;5.40;99.90;;;;;;5111775;28;20043;-75
2021/12/17 13:53:17;;;;;;;15.05;11.57;;;5.50;99.90;;;;;;5077771;28;20104;-75
2021/12/17 13:55:51;;;;;;;18.65;11.50;;;5.40;99.90;;;;;;5095947;28;20047;-75
2021/12/17 13:58:23;;;;;;;14.30;10.25;;;5.40;99.90;;;;;;5113241;28;20071;-75
2021/12/17 14:00:58;;;;;;;15.85;10.77;;;5.40;99.90;;;;;;5095903;28;20453;-75
2021/12/17 14:03:31;;;;;;;11.13;8.32;;;5.40;99.90;;;;;;5093619;28;20081;-75
2021/12/17 14:09:03;;;;;;;13.30;9.30;;;5.40;99.90;;;;;;5061731;28;20006;-75
2021/12/17 14:11:34;;;;;;;14.40;10.32;;;5.40;99.90;;;;;;5112419;28;20392;-75
2021/12/17 14:14:01;;;;;;;14.88;10.43;;;5.30;99.90;;;;;;5076665;28;20507;-75
2021/12/17 14:16:34;;;;;;;15.43;11.27;;;5.20;99.90;;;;;;5104390;27;20129;-75
2021/12/17 14:19:05;;;;;;;17.23;10.98;;;5.20;99.90;;;;;;5131461;27;20043;-75
2021/12/17 14:21:35;;;;;;;15.73;11.10;;;5.20;99.90;;;;;;5132581;27;20082;-75
2021/12/17 14:24:03;;;;;;;15.82;11.32;;;5.10;99.90;;;;;;5095917;27;20441;-75
2021/12/17 14:26:34;;;;;;;12.80;9.93;;;5.10;99.90;;;;;;5115321;27;20070;-76
2021/12/17 14:29:11;;;;;;;15.00;10.02;;;5.10;99.90;;;;;;5111579;27;20049;-76
2021/12/17 14:31:38;;;;;;;16.42;11.15;;;5.00;99.90;;;;;;5111914;27;20054;-76
2021/12/17 14:34:05;;;;;;;15.32;10.38;;;4.90;99.90;;;;;;5094307;27;20066;-76
2021/12/17 14:36:38;;;;;;;15.93;11.48;;;4.90;99.90;;;;;;5096556;27;20134;-76
2021/12/17 14:39:16;;;;;;;19.30;12.13;;;4.80;99.90;;;;;;5129474;27;20042;-76
2021/12/17 14:41:50;;;;;;;;;;;4.70;99.90;;;;;;5124910;27;20404;-76
2021/12/17 14:45:05;;;;;;;19.58;12.20;;;4.70;99.90;;;;;;5111956;27;20009;-76
2021/12/17 14:47:22;;;;;;;19.35;11.90;;;4.60;99.90;;;;;;5110160;27;20096;-75
2021/12/17 15:01:33;;;;;;;20.33;12.20;;;4.20;99.90;;;;;;5090265;28;20040;-75
2021/12/17 15:03:54;;;;;;;22.35;12.27;;;4.20;99.90;;;;;;5108576;28;20047;-75
2021/12/17 15:06:27;;;;;;;20.10;12.68;;;4.10;99.90;;;;;;5092386;28;20067;-76
2021/12/17 15:08:59;;;;;;;23.08;12.32;;;4.10;99.90;;;;;;5076333;28;20039;-76
2021/12/17 15:11:37;;;;;;;20.42;12.07;;;4.10;99.90;;;;;;5093374;28;20515;-76
2021/12/17 15:14:05;;;;;;;25.98;13.85;;;4.00;99.90;;;;;;5078258;27;20137;-76
2021/12/17 15:16:33;;;;;;;23.48;13.25;;;4.00;99.90;;;;;;5110200;27;20495;-76
2021/12/17 15:19:05;;;;;;;28.25;15.20;;;4.00;99.90;;;;;;5110405;27;20075;-75
2021/12/17 15:21:37;;;;;;;25.65;14.95;;;4.00;99.90;;;;;;5110558;28;20523;-76
2021/12/17 15:24:04;;;;;;;29.30;15.60;;;4.00;99.90;;;;;;5109995;28;20048;-75
2021/12/17 15:26:35;;;;;;;28.55;16.25;;;4.00;99.90;;;;;;5093680;28;20039;-75
2021/12/17 15:29:08;;;;;;;30.92;16.30;;;4.00;99.90;;;;;;5080438;28;20098;-74
2021/12/17 15:31:40;;;;;;;31.10;16.63;;;4.00;99.90;;;;;;5096088;28;20084;-76
2021/12/17 15:34:11;;;;;;;31.42;16.15;;;4.00;99.90;;;;;;5095615;28;20035;-76
2021/12/17 15:36:43;;;;;;;26.58;16.25;;;3.90;99.90;;;;;;5129960;28;20126;-75
2021/12/17 15:39:10;;;;;;;26.77;14.90;;;4.00;99.90;;;;;;5089081;28;20454;-75
2021/12/17 15:41:41;;;;;;;28.42;15.77;;;4.00;99.90;;;;;;5111028;28;20039;-75
2021/12/17 15:44:11;;;;;;;29.98;16.58;;;4.00;99.90;;;;;;5089253;28;20086;-75
2021/12/17 15:46:43;;;;;;;28.27;16.55;;;4.00;99.90;;;;;;5091260;28;20039;-75
2021/12/17 15:49:15;;;;;;;27.25;15.55;;;4.00;99.90;;;;;;5096471;28;20071;-75
2021/12/17 15:51:42;;;;;;;29.98;18.00;;;4.00;99.90;;;;;;5087417;28;20039;-75
2021/12/17 15:54:09;;;;;;;28.30;17.00;;;4.00;99.90;;;;;;5105514;28;20039;-75
2021/12/17 15:56:36;;;;;;;25.17;14.43;;;4.00;99.90;;;;;;5104513;28;20419;-75
2021/12/17 15:59:04;;;;;;;24.50;13.05;;;4.00;99.90;;;;;;5108681;27;20464;-75
2021/12/17 16:01:35;;;;;;;25.40;14.13;;;4.00;99.90;;;;;;5120045;27;20055;-75
2021/12/17 16:04:07;;;;;;;25.83;13.70;;;4.00;99.90;;;;;;5129104;27;20039;-75
2021/12/17 16:06:39;;;;;;;24.00;13.02;;;4.00;99.90;;;;;;5110198;28;20134;-75
2021/12/17 16:09:35;;;;;;;23.45;13.40;;;3.90;99.90;;;;;;5116612;27;20131;-75
2021/12/17 16:16:48;;;;;;;25.92;15.75;;;3.90;99.90;;;;;;5110627;28;20081;-75
2021/12/17 16:23:04;;;;;;;24.65;14.70;;;4.00;99.90;;;;;;5122318;28;20510;-75
2021/12/17 16:25:32;;;;;;;32.35;16.80;;;4.00;99.90;;;;;;5109204;28;20123;-75
2021/12/17 16:28:04;;;;;;;29.48;16.30;;;3.90;99.90;;;;;;5108694;28;20052;-75
2021/12/17 16:30:36;;;;;;;33.00;16.63;;;3.90;99.90;;;;;;5108472;28;20039;-75